Time;durP1;ratioP1;P1;durP2;ratioP2;P2;SDS_P1;SDS_P2;PMS_P1;PMS_P2;Temp;Humidity;BMP_temperature;BMP_pressure;BME280_temperature;BME280_humidity;BME280_pressure;Samples;Min_cycle;Max_cycle;Signal;HPM_P1;HPM_P2
2021/08/08 00:00:49;;;;;;;1999.90;999.90;;;;;;;24.68;63.68;97257.69;5093878;28;20052;-67
2021/08/08 00:03:16;;;;;;;1999.90;999.90;;;;;;;24.77;63.17;97264.28;5093054;28;20383;-67
2021/08/08 00:05:42;;;;;;;1999.90;999.90;;;;;;;25.08;62.00;97268.63;5081178;28;20044;-67
2021/08/08 00:08:12;;;;;;;1999.90;999.90;;;;;;;25.11;61.50;97276.22;5094541;28;20449;-67
2021/08/08 00:10:38;;;;;;;1999.90;999.90;;;;;;;24.91;62.07;97280.03;5093465;28;20282;-67
2021/08/08 00:13:05;;;;;;;1999.90;999.90;;;;;;;25.08;61.58;97282.78;5094145;28;20111;-67
2021/08/08 00:15:31;;;;;;;1999.90;999.90;;;;;;;24.89;61.83;97276.88;5094539;28;20070;-67
2021/08/08 00:17:58;;;;;;;1999.90;999.90;;;;;;;24.90;62.01;97278.44;5096525;28;20090;-67
2021/08/08 00:20:25;;;;;;;1999.90;999.90;;;;;;;25.09;61.30;97273.06;5103590;28;20457;-67
2021/08/08 00:22:51;;;;;;;1999.90;999.90;;;;;;;25.20;60.92;97258.59;5112115;28;20516;-67
2021/08/08 00:25:18;;;;;;;1999.90;999.90;;;;;;;24.47;62.96;97251.34;5094117;28;20110;-68
2021/08/08 00:27:44;;;;;;;1999.90;999.90;;;;;;;24.23;63.96;97245.94;5094088;28;20075;-68
2021/08/08 00:30:11;;;;;;;1999.90;999.90;;;;;;;24.64;63.26;97245.69;5094374;28;20048;-67
2021/08/08 00:32:39;;;;;;;1999.90;999.90;;;;;;;24.86;62.48;97249.50;5094164;28;20071;-67
2021/08/08 00:35:07;;;;;;;1999.90;999.90;;;;;;;25.25;61.35;97272.97;5092847;28;20456;-67
2021/08/08 00:37:34;;;;;;;1999.90;999.90;;;;;;;24.14;64.81;97262.72;5093698;28;20090;-67
2021/08/08 00:40:01;;;;;;;1999.90;999.90;;;;;;;24.31;64.46;97262.69;5094648;28;20056;-67
2021/08/08 00:42:27;;;;;;;1999.90;999.90;;;;;;;24.36;64.63;97268.59;5092906;28;20067;-67
2021/08/08 00:44:54;;;;;;;1999.90;999.90;;;;;;;24.58;64.32;97268.03;5097757;28;20383;-67
2021/08/08 00:47:20;;;;;;;1999.90;999.90;;;;;;;24.80;63.63;97285.19;5093978;28;20044;-68
2021/08/08 00:49:48;;;;;;;1999.90;999.90;;;;;;;24.22;65.87;97285.91;5103346;28;20047;-67
2021/08/08 00:52:15;;;;;;;1999.90;999.90;;;;;;;24.58;64.71;97288.63;5101123;28;20083;-68
2021/08/08 00:54:41;;;;;;;1999.90;999.90;;;;;;;24.65;64.94;97289.66;5093530;28;20081;-67
2021/08/08 00:57:08;;;;;;;1999.90;999.90;;;;;;;24.43;65.67;97291.00;5093297;28;20056;-67
2021/08/08 00:59:35;;;;;;;1999.90;999.90;;;;;;;24.58;65.56;97301.94;5093663;28;20353;-68
2021/08/08 01:02:04;;;;;;;1999.90;999.90;;;;;;;24.40;65.79;97296.75;5093249;28;20090;-67
2021/08/08 01:04:38;;;;;;;1999.90;999.90;;;;;;;24.03;67.27;97301.75;5094586;28;20075;-67
2021/08/08 01:07:29;;;;;;;1999.90;999.90;;;;;;;24.35;66.50;97308.59;5092764;28;20385;-67
2021/08/08 01:10:00;;;;;;;1999.90;999.90;;;;;;;24.34;66.67;97315.47;5093028;28;20056;-67
2021/08/08 01:12:27;;;;;;;1999.90;999.90;;;;;;;24.41;66.62;97306.81;5092921;28;20051;-67
2021/08/08 01:14:56;;;;;;;1999.90;999.90;;;;;;;24.52;66.05;97304.50;5093463;28;20335;-67
2021/08/08 01:17:23;;;;;;;1999.90;999.90;;;;;;;24.30;67.23;97303.50;5093172;28;20044;-67
2021/08/08 01:20:10;;;;;;;1999.90;999.90;;;;;;;24.11;68.00;97320.09;5092050;28;20052;-67
2021/08/08 01:22:43;;;;;;;1999.90;999.90;;;;;;;23.77;69.58;97312.81;5082138;28;20040;-68
2021/08/08 01:25:10;;;;;;;1999.90;999.90;;;;;;;24.08;69.29;97318.94;5093337;28;20048;-67
2021/08/08 01:27:37;;;;;;;1999.90;999.90;;;;;;;23.79;70.37;97320.84;5092129;28;20078;-67
2021/08/08 01:30:05;;;;;;;1999.90;999.90;;;;;;;23.82;71.12;97315.13;5092496;28;20048;-67
2021/08/08 01:32:33;;;;;;;1999.90;999.90;;;;;;;23.59;72.79;97324.50;5093203;28;20300;-68
2021/08/08 01:35:01;;;;;;;1999.90;999.90;;;;;;;23.41;74.64;97329.78;5098463;28;20073;-68
2021/08/08 01:37:29;;;;;;;1999.90;999.90;;;;;;;23.43;74.88;97349.88;5102005;28;20040;-67
2021/08/08 01:40:05;;;;;;;1999.90;999.90;;;;;;;23.49;75.50;97348.94;5092950;28;20399;-67
2021/08/08 01:42:33;;;;;;;1999.90;999.90;;;;;;;23.66;75.24;97360.25;5092200;28;20420;-67
2021/08/08 01:45:02;;;;;;;1999.90;999.90;;;;;;;23.20;77.73;97376.94;5092768;28;20040;-68
2021/08/08 01:47:36;;;;;;;1999.90;999.90;;;;;;;22.89;79.09;97387.59;5092026;28;20076;-70
2021/08/08 01:50:04;;;;;;;1999.90;999.90;;;;;;;22.60;79.83;97400.19;5092881;28;20101;-69
2021/08/08 01:52:30;;;;;;;1999.90;999.90;;;;;;;22.08;80.18;97411.88;5090875;28;20097;-68
2021/08/08 01:54:57;;;;;;;1999.90;999.90;;;;;;;21.68;80.53;97412.44;5094106;28;20085;-70
2021/08/08 01:57:24;;;;;;;1999.90;999.90;;;;;;;21.46;81.49;97420.34;5090206;28;20048;-68
2021/08/08 01:59:50;;;;;;;1999.90;999.90;;;;;;;21.24;81.71;97428.22;5091333;28;20044;-69
2021/08/08 02:02:17;;;;;;;1999.90;999.90;;;;;;;20.98;81.79;97430.53;5090001;28;21020;-69
2021/08/08 02:04:45;;;;;;;1999.90;999.90;;;;;;;20.68;83.33;97437.66;5090931;28;20044;-67
2021/08/08 02:07:17;;;;;;;1999.90;999.90;;;;;;;20.55;83.46;97442.16;5091411;28;20117;-71
2021/08/08 02:09:45;;;;;;;1999.90;999.90;;;;;;;20.42;83.86;97453.09;5090063;28;20062;-68
2021/08/08 02:12:12;;;;;;;1999.90;999.90;;;;;;;20.21;84.87;97454.06;5090832;28;20436;-68
2021/08/08 02:14:38;;;;;;;1999.90;999.90;;;;;;;20.49;83.46;97458.66;5091656;28;20047;-67
2021/08/08 02:17:06;;;;;;;1999.90;999.90;;;;;;;20.13;85.07;97461.72;5090246;28;20074;-67
2021/08/08 02:19:33;;;;;;;1999.90;999.90;;;;;;;20.22;84.35;97469.69;5090745;28;20097;-69
2021/08/08 02:22:01;;;;;;;1999.90;999.90;;;;;;;20.24;84.21;97458.84;5090126;28;20344;-67
2021/08/08 02:24:29;;;;;;;1999.90;999.90;;;;;;;20.18;83.96;97477.31;5090107;28;20036;-68
2021/08/08 02:26:57;;;;;;;1999.90;999.90;;;;;;;20.23;84.17;97483.31;5089905;28;20055;-68
2021/08/08 02:29:24;;;;;;;1999.90;999.90;;;;;;;20.09;84.42;97480.59;5090770;28;20341;-68
2021/08/08 02:31:51;;;;;;;1999.90;999.90;;;;;;;20.08;84.48;97495.03;5092207;28;20106;-68
2021/08/08 02:34:19;;;;;;;1999.90;999.90;;;;;;;20.01;84.62;97490.28;5092798;28;20277;-70
2021/08/08 02:36:45;;;;;;;1999.90;999.90;;;;;;;19.99;84.34;97499.09;5090064;28;20077;-67
2021/08/08 02:39:12;;;;;;;1999.90;999.90;;;;;;;20.09;83.91;97499.44;5101165;28;20052;-68
2021/08/08 02:41:38;;;;;;;1999.90;999.90;;;;;;;20.23;83.16;97516.16;5089499;28;20330;-68
2021/08/08 02:44:05;;;;;;;1999.90;999.90;;;;;;;20.28;82.93;97532.59;5090965;28;20044;-68
2021/08/08 02:46:32;;;;;;;1999.90;999.90;;;;;;;20.27;82.92;97533.78;5088641;28;20456;-67
2021/08/08 02:48:59;;;;;;;1999.90;999.90;;;;;;;20.56;81.45;97542.03;5102730;28;20054;-69
2021/08/08 02:51:25;;;;;;;1999.90;999.90;;;;;;;20.38;81.99;97547.75;5097617;28;20052;-68
2021/08/08 02:53:52;;;;;;;1999.90;999.90;;;;;;;20.10;82.60;97573.97;5091429;28;20189;-67
2021/08/08 02:56:18;;;;;;;1999.90;999.90;;;;;;;20.13;82.43;97587.22;5091130;28;20419;-67
2021/08/08 02:58:45;;;;;;;1999.90;999.90;;;;;;;20.27;81.79;97597.56;5090847;28;20390;-67
2021/08/08 03:01:11;;;;;;;1999.90;999.90;;;;;;;20.11;82.39;97600.84;5091043;28;20424;-67
2021/08/08 03:03:38;;;;;;;1999.90;999.90;;;;;;;20.00;82.41;97600.88;5090928;28;20436;-67
2021/08/08 03:06:13;;;;;;;1999.90;999.90;;;;;;;20.05;81.88;97611.69;5091456;28;20052;-68
2021/08/08 03:08:50;;;;;;;1999.90;999.90;;;;;;;19.95;82.30;97616.13;5089643;28;20079;-67
2021/08/08 03:11:18;;;;;;;1999.90;999.90;;;;;;;19.68;83.06;97629.78;5090531;28;20044;-68
2021/08/08 03:13:44;;;;;;;1999.90;999.90;;;;;;;19.86;82.58;97635.41;5090633;28;20036;-66
2021/08/08 03:16:11;;;;;;;1999.90;999.90;;;;;;;19.78;82.82;97628.22;5089743;28;20192;-66
2021/08/08 03:18:38;;;;;;;1999.90;999.90;;;;;;;19.69;82.50;97643.44;5090240;28;20052;-67
2021/08/08 03:21:06;;;;;;;1999.90;999.90;;;;;;;19.77;82.53;97646.19;5091225;28;20488;-67
2021/08/08 03:23:34;;;;;;;1999.90;999.90;;;;;;;19.72;82.98;97653.03;5089478;28;20048;-66
2021/08/08 03:26:01;;;;;;;1999.90;999.90;;;;;;;19.67;84.38;97659.06;5089707;28;20440;-67
2021/08/08 03:28:28;;;;;;;1999.90;999.90;;;;;;;19.42;85.13;97673.91;5090549;28;20106;-68
2021/08/08 03:30:55;;;;;;;1999.90;999.90;;;;;;;19.06;88.30;97679.50;5090352;28;20105;-67
2021/08/08 03:33:21;;;;;;;1999.90;999.90;;;;;;;19.13;90.05;97684.28;5090208;28;20143;-67
2021/08/08 03:35:48;;;;;;;1999.90;999.90;;;;;;;19.31;89.14;97690.72;5093958;28;20048;-68
2021/08/08 03:38:14;;;;;;;1999.90;999.90;;;;;;;19.27;90.04;97689.91;5094591;28;20060;-67
2021/08/08 03:40:41;;;;;;;1999.90;999.90;;;;;;;19.61;89.63;97686.72;5093513;28;20144;-67
2021/08/08 03:43:08;;;;;;;1999.90;999.90;;;;;;;19.07;91.14;97685.91;5093594;28;20437;-67
2021/08/08 03:45:34;;;;;;;1999.90;999.90;;;;;;;19.39;90.85;97690.72;5094150;28;20490;-68
2021/08/08 03:48:01;;;;;;;1999.90;999.90;;;;;;;18.94;90.96;97686.28;5093082;28;20105;-66
2021/08/08 03:50:28;;;;;;;1999.90;999.90;;;;;;;19.12;92.24;97677.09;5092834;28;20070;-66
2021/08/08 03:52:55;;;;;;;1999.90;999.90;;;;;;;19.04;93.05;97686.69;5092543;28;20048;-66
2021/08/08 03:55:21;;;;;;;1999.90;999.90;;;;;;;19.13;92.16;97678.69;5099313;28;20083;-66
2021/08/08 03:57:48;;;;;;;1999.90;999.90;;;;;;;19.21;91.38;97674.72;5100439;28;20056;-66
2021/08/08 04:00:15;;;;;;;1999.90;999.90;;;;;;;19.30;91.38;97683.50;5109684;28;20530;-66
2021/08/08 04:02:42;;;;;;;1999.90;999.90;;;;;;;18.93;91.71;97678.28;5094171;28;20098;-66
2021/08/08 04:05:09;;;;;;;1999.90;999.90;;;;;;;19.72;89.40;97681.06;5094055;28;20098;-66
2021/08/08 04:07:35;;;;;;;1999.90;999.90;;;;;;;19.30;89.86;97694.72;5093821;28;20117;-66
2021/08/08 04:10:03;;;;;;;1999.90;999.90;;;;;;;19.50;90.11;97699.91;5094796;28;20093;-66
2021/08/08 04:12:29;;;;;;;1999.90;999.90;;;;;;;19.27;89.59;97689.91;5093461;28;20105;-66
2021/08/08 04:14:56;;;;;;;1999.90;999.90;;;;;;;19.38;89.94;97683.50;5093219;28;20048;-66
2021/08/08 04:17:22;;;;;;;1999.90;999.90;;;;;;;19.32;90.19;97675.53;5094256;28;20059;-66
2021/08/08 04:19:49;;;;;;;1999.90;999.90;;;;;;;19.64;89.25;97685.91;5093474;28;20052;-66
2021/08/08 04:22:15;;;;;;;1999.90;999.90;;;;;;;19.44;89.50;97690.31;5093489;28;20047;-67
2021/08/08 04:24:42;;;;;;;1999.90;999.90;;;;;;;19.09;91.03;97703.91;5093503;28;20097;-66
2021/08/08 04:27:08;;;;;;;1999.90;999.90;;;;;;;19.18;90.75;97703.53;5093797;28;20040;-66
2021/08/08 04:29:35;;;;;;;1999.90;999.90;;;;;;;19.45;90.12;97717.94;5092681;28;20452;-66
2021/08/08 04:32:02;;;;;;;1999.90;999.90;;;;;;;19.62;89.33;97726.75;5093936;28;20384;-67
2021/08/08 04:34:31;;;;;;;1999.90;999.90;;;;;;;19.58;90.22;97721.16;5093912;28;20047;-67
2021/08/08 04:36:58;;;;;;;1999.90;999.90;;;;;;;19.86;88.74;97713.97;5099904;28;20067;-67
2021/08/08 04:39:25;;;;;;;1999.90;999.90;;;;;;;19.45;91.82;97722.75;5103524;28;20109;-66
2021/08/08 04:41:52;;;;;;;1999.90;999.90;;;;;;;19.32;92.25;97731.56;5093989;28;20044;-66
2021/08/08 04:44:20;;;;;;;1999.90;999.90;;;;;;;19.31;92.33;97746.78;5092538;28;20048;-67
2021/08/08 04:46:47;;;;;;;1999.90;999.90;;;;;;;19.13;94.98;97743.13;5093360;28;20043;-67
2021/08/08 04:49:14;;;;;;;1999.90;999.90;;;;;;;19.05;96.04;97749.94;5093810;28;20120;-67
2021/08/08 04:51:41;;;;;;;1999.90;999.90;;;;;;;19.21;95.73;97758.78;5093712;28;20150;-67
2021/08/08 04:54:11;;;;;;;1999.90;999.90;;;;;;;19.19;95.75;97758.38;5092444;28;20044;-68
2021/08/08 04:56:37;;;;;;;1999.90;999.90;;;;;;;19.17;96.21;97755.97;5092793;28;20425;-68
2021/08/08 04:59:04;;;;;;;1999.90;999.90;;;;;;;18.79;98.68;97766.66;5093404;28;20044;-68
2021/08/08 05:01:31;;;;;;;1999.90;999.90;;;;;;;18.73;99.71;97775.84;5091609;28;20059;-68
2021/08/08 05:03:58;;;;;;;1999.90;999.90;;;;;;;18.81;99.40;97769.06;5091989;28;20123;-68
2021/08/08 05:06:24;;;;;;;1999.90;999.90;;;;;;;18.68;100.00;97781.81;5091273;28;20044;-68
2021/08/08 05:08:51;;;;;;;1999.90;999.90;;;;;;;19.11;98.90;97774.34;5092508;28;20051;-68
2021/08/08 05:11:18;;;;;;;1999.90;999.90;;;;;;;18.92;99.21;97777.50;5092307;28;20105;-68
2021/08/08 05:13:46;;;;;;;1999.90;999.90;;;;;;;18.62;100.00;97781.38;5093559;28;20056;-68
2021/08/08 05:16:13;;;;;;;1999.90;999.90;;;;;;;18.56;100.00;97780.94;5093161;28;20058;-68
2021/08/08 05:18:40;;;;;;;1999.90;999.90;;;;;;;18.34;100.00;97779.22;5091150;28;20343;-68
2021/08/08 05:21:07;;;;;;;1999.90;999.90;;;;;;;18.33;100.00;97783.25;5091572;28;20112;-68
2021/08/08 05:23:34;;;;;;;1999.90;999.90;;;;;;;18.32;100.00;97781.63;5092319;28;20048;-68
2021/08/08 05:26:03;;;;;;;1999.90;999.90;;;;;;;18.19;100.00;97792.34;5090879;28;20048;-68
2021/08/08 05:28:30;;;;;;;1999.90;999.90;;;;;;;17.88;100.00;97786.09;5089571;28;20052;-68
2021/08/08 05:30:56;;;;;;;1999.90;999.90;;;;;;;18.15;100.00;97806.31;5094729;28;20070;-68
2021/08/08 05:33:23;;;;;;;1999.90;999.90;;;;;;;18.06;100.00;97812.25;5091368;28;20341;-68
2021/08/08 05:35:51;;;;;;;1999.90;999.90;;;;;;;18.44;100.00;97823.28;5090522;28;20048;-68
2021/08/08 05:38:18;;;;;;;1999.90;999.90;;;;;;;18.46;100.00;97809.72;5099563;28;20085;-68
2021/08/08 05:40:45;;;;;;;1999.90;999.90;;;;;;;18.46;100.00;97820.91;5091924;28;20052;-68
2021/08/08 05:43:12;;;;;;;1999.90;999.90;;;;;;;18.65;100.00;97823.41;5090719;28;20052;-68
2021/08/08 05:45:39;;;;;;;1999.90;999.90;;;;;;;18.33;100.00;97822.44;5091100;28;20441;-67
2021/08/08 05:48:05;;;;;;;1999.90;999.90;;;;;;;18.35;100.00;97814.44;5106313;28;20055;-67
2021/08/08 05:50:32;;;;;;;1999.90;999.90;;;;;;;18.34;100.00;97822.03;5091301;28;20075;-68
2021/08/08 05:52:58;;;;;;;1999.90;999.90;;;;;;;18.25;100.00;97822.38;5090575;28;20116;-68
2021/08/08 05:55:25;;;;;;;1999.90;999.90;;;;;;;18.60;100.00;97817.38;5091040;28;20074;-68
2021/08/08 05:57:52;;;;;;;1999.90;999.90;;;;;;;18.69;100.00;97831.00;5091543;28;20113;-68
2021/08/08 06:00:19;;;;;;;1999.90;999.90;;;;;;;18.52;100.00;97847.31;5090835;28;20402;-68
2021/08/08 06:02:45;;;;;;;1999.90;999.90;;;;;;;18.82;100.00;97849.06;5091428;28;20381;-69
2021/08/08 06:05:12;;;;;;;1999.90;999.90;;;;;;;18.83;100.00;97850.66;5092059;28;20052;-68
2021/08/08 06:07:39;;;;;;;1999.90;999.90;;;;;;;18.77;100.00;97863.44;5088867;28;20399;-68
2021/08/08 06:10:06;;;;;;;1999.90;999.90;;;;;;;18.50;100.00;97860.88;5090567;28;20058;-68
2021/08/08 06:12:32;;;;;;;1999.90;999.90;;;;;;;18.50;100.00;97876.91;5092427;28;20112;-68
2021/08/08 06:14:59;;;;;;;1999.90;999.90;;;;;;;18.94;99.87;97870.38;5090443;28;20044;-68
2021/08/08 06:17:26;;;;;;;1999.90;999.90;;;;;;;18.58;100.00;97873.75;5100150;28;20150;-68
2021/08/08 06:19:52;;;;;;;1999.90;999.90;;;;;;;18.56;100.00;97875.31;5091155;28;20048;-69
2021/08/08 06:22:19;;;;;;;1999.90;999.90;;;;;;;18.30;100.00;97880.75;5090201;28;20137;-71
2021/08/08 06:24:45;;;;;;;1999.90;999.90;;;;;;;18.81;100.00;97881.88;5090253;28;20040;-68
2021/08/08 06:27:11;;;;;;;1999.90;999.90;;;;;;;19.12;99.89;97878.84;5091080;28;20075;-68
2021/08/08 06:29:38;;;;;;;1999.90;999.90;;;;;;;19.03;99.02;97876.41;5092858;28;20048;-67
2021/08/08 06:32:05;;;;;;;1999.90;999.90;;;;;;;18.76;100.00;97885.06;5091224;28;20188;-67
2021/08/08 06:34:32;;;;;;;1999.90;999.90;;;;;;;19.15;100.00;97883.66;5091456;28;20391;-67
2021/08/08 06:36:58;;;;;;;1999.90;999.90;;;;;;;19.31;99.48;97884.13;5092184;28;20044;-67
2021/08/08 06:39:25;;;;;;;1999.90;999.90;;;;;;;19.27;99.31;97880.50;5090569;28;20093;-67
2021/08/08 06:41:52;;;;;;;1999.90;999.90;;;;;;;19.40;97.68;97882.94;5092139;28;20056;-67
2021/08/08 06:44:18;;;;;;;1999.90;999.90;;;;;;;19.65;96.46;97883.81;5091262;28;20079;-67
2021/08/08 06:46:45;;;;;;;1999.90;999.90;;;;;;;19.89;95.31;97884.28;5091978;28;20051;-67
2021/08/08 06:49:11;;;;;;;1999.90;999.90;;;;;;;19.75;94.89;97882.19;5097081;28;20075;-68
2021/08/08 06:51:38;;;;;;;1999.90;999.90;;;;;;;19.75;95.77;97893.41;5091818;28;20048;-67
2021/08/08 06:54:04;;;;;;;1999.90;999.90;;;;;;;20.03;95.55;97887.06;5097659;28;20079;-67
2021/08/08 06:56:32;;;;;;;1999.90;999.90;;;;;;;20.18;95.20;97889.88;5096276;28;20052;-67
2021/08/08 06:58:59;;;;;;;1999.90;999.90;;;;;;;20.05;94.91;97878.25;5105260;28;20050;-67
2021/08/08 07:01:26;;;;;;;1999.90;999.90;;;;;;;20.11;95.12;97887.06;5092046;28;20056;-67
2021/08/08 07:03:52;;;;;;;1999.90;999.90;;;;;;;20.03;94.84;97892.69;5091315;28;20051;-68
2021/08/08 07:06:19;;;;;;;1999.90;999.90;;;;;;;19.95;96.03;97895.88;5091747;28;20255;-68
2021/08/08 07:08:46;;;;;;;1999.90;999.90;;;;;;;20.34;94.23;97897.91;5093468;28;20059;-68
2021/08/08 07:11:12;;;;;;;1999.90;999.90;;;;;;;20.40;93.15;97885.84;5095696;28;20052;-68
2021/08/08 07:13:40;;;;;;;1999.90;999.90;;;;;;;20.17;94.03;97868.63;5094614;28;20048;-68
2021/08/08 07:16:07;;;;;;;1999.90;999.90;;;;;;;20.27;93.22;97879.03;5095761;28;20164;-68
2021/08/08 07:18:34;;;;;;;1999.90;999.90;;;;;;;20.34;92.87;97878.25;5095789;28;20113;-66
2021/08/08 07:21:01;;;;;;;1999.90;999.90;;;;;;;20.24;93.09;97903.09;5096888;28;20044;-66
2021/08/08 07:23:28;;;;;;;1999.90;999.90;;;;;;;19.87;94.08;97911.91;5095041;28;20097;-66
2021/08/08 07:25:54;;;;;;;1999.90;999.90;;;;;;;20.02;93.39;97896.72;5095553;28;20051;-66
2021/08/08 07:28:21;;;;;;;1999.90;999.90;;;;;;;20.24;92.82;97893.88;5094339;28;20341;-66
2021/08/08 07:30:48;;;;;;;1999.90;999.90;;;;;;;20.60;92.09;97899.47;5094721;28;20051;-66
2021/08/08 07:33:14;;;;;;;1999.90;999.90;;;;;;;20.79;91.58;97889.81;5113513;28;20047;-66
2021/08/08 07:35:41;;;;;;;1999.90;999.90;;;;;;;20.29;92.64;97887.88;5100094;28;20120;-66
2021/08/08 07:38:08;;;;;;;1999.90;999.90;;;;;;;20.35;91.63;97886.28;5103040;28;20056;-66
2021/08/08 07:40:35;;;;;;;1999.90;999.90;;;;;;;20.55;91.90;97878.19;5095279;28;20060;-67
2021/08/08 07:43:03;;;;;;;1999.90;999.90;;;;;;;21.00;89.40;97880.50;5095787;28;20402;-67
2021/08/08 07:45:29;;;;;;;1999.90;999.90;;;;;;;21.36;89.80;97873.94;5094931;28;20047;-67
2021/08/08 07:47:56;;;;;;;1999.90;999.90;;;;;;;21.85;85.39;97905.03;5094834;28;20131;-67
2021/08/08 07:50:22;;;;;;;1999.90;999.90;;;;;;;21.75;84.91;97899.06;5094344;28;20056;-67
2021/08/08 07:52:50;;;;;;;1999.90;999.90;;;;;;;21.22;86.00;97902.94;5093539;28;20134;-66
2021/08/08 07:55:16;;;;;;;1999.90;999.90;;;;;;;22.03;84.46;97897.25;5094227;28;20051;-67
2021/08/08 07:57:43;;;;;;;1999.90;999.90;;;;;;;22.60;81.02;97898.00;5094701;28;20056;-67
2021/08/08 08:00:10;;;;;;;1999.90;999.90;;;;;;;23.32;80.36;97897.22;5093817;28;20136;-67
2021/08/08 08:02:36;;;;;;;1999.90;999.90;;;;;;;22.24;80.22;97901.09;5093701;28;20040;-68
2021/08/08 08:05:05;;;;;;;1999.90;999.90;;;;;;;21.84;79.74;97903.41;5086807;28;20040;-67
2021/08/08 08:07:31;;;;;;;1999.90;999.90;;;;;;;21.81;81.47;97919.13;5094017;28;20056;-68
2021/08/08 08:09:58;;;;;;;1999.90;999.90;;;;;;;21.74;81.33;97931.22;5093710;28;20079;-68
2021/08/08 08:12:25;;;;;;;1999.90;999.90;;;;;;;21.60;81.34;97929.28;5079321;28;20080;-65
2021/08/08 08:14:52;;;;;;;1999.90;999.90;;;;;;;21.49;81.55;97924.91;5108107;28;20130;-65
2021/08/08 08:17:18;;;;;;;1999.90;999.90;;;;;;;21.87;81.43;97925.09;5097476;28;20126;-65
2021/08/08 08:19:45;;;;;;;1999.90;999.90;;;;;;;21.86;80.61;97941.19;5092886;28;20063;-65
2021/08/08 08:22:16;;;;;;;1999.90;999.90;;;;;;;21.19;81.95;97943.09;5094127;28;20109;-68
2021/08/08 08:24:43;;;;;;;1999.90;999.90;;;;;;;20.98;83.37;97933.53;5094146;28;20063;-68
2021/08/08 08:27:10;;;;;;;1999.90;999.90;;;;;;;21.11;83.87;97945.16;5093618;28;20051;-68
2021/08/08 08:29:38;;;;;;;1999.90;999.90;;;;;;;20.82;84.29;97931.16;5094487;28;20048;-68
2021/08/08 08:32:06;;;;;;;1999.90;999.90;;;;;;;21.37;83.17;97935.38;5094224;28;20055;-67
2021/08/08 08:34:34;;;;;;;1999.90;999.90;;;;;;;21.81;80.95;97944.47;5093069;28;20051;-67
2021/08/08 08:37:00;;;;;;;1999.90;999.90;;;;;;;21.60;81.65;97959.41;5093816;28;21014;-67
2021/08/08 08:39:27;;;;;;;1999.90;999.90;;;;;;;22.17;81.02;97953.44;5094275;28;20097;-67
2021/08/08 08:42:00;;;;;;;1999.90;999.90;;;;;;;22.45;78.09;97976.19;5093418;28;20059;-67
2021/08/08 08:44:26;;;;;;;1999.90;999.90;;;;;;;21.86;80.30;97974.19;5083275;28;20052;-67
2021/08/08 08:46:58;;;;;;;1999.90;999.90;;;;;;;21.78;80.68;97985.47;5108367;28;20051;-67
2021/08/08 08:49:27;;;;;;;1999.90;999.90;;;;;;;21.63;80.59;97984.75;5092770;28;20040;-67
2021/08/08 08:52:05;;;;;;;1999.90;999.90;;;;;;;21.64;80.71;97991.16;5092534;28;20043;-67
2021/08/08 08:54:33;;;;;;;1999.90;999.90;;;;;;;21.00;83.39;97992.94;5093325;28;20050;-67
2021/08/08 08:57:00;;;;;;;1999.90;999.90;;;;;;;21.49;81.04;98000.84;5093608;28;20051;-68
2021/08/08 08:59:28;;;;;;;1999.90;999.90;;;;;;;22.37;79.36;98003.63;5092458;28;20044;-70
2021/08/08 09:01:54;;;;;;;1999.90;999.90;;;;;;;23.00;75.89;98002.69;5092876;28;20348;-68
2021/08/08 09:04:21;;;;;;;1999.90;999.90;;;;;;;22.90;75.31;98007.22;5093682;28;20448;-68
2021/08/08 09:06:48;;;;;;;1999.90;999.90;;;;;;;22.84;74.97;98015.31;5093100;28;20101;-65
2021/08/08 09:09:15;;;;;;;1999.90;999.90;;;;;;;22.76;74.19;98016.59;5092401;28;20142;-66
2021/08/08 09:11:44;;;;;;;1999.90;999.90;;;;;;;23.00;74.55;98011.13;5098285;28;20080;-65
2021/08/08 09:14:14;;;;;;;1999.90;999.90;;;;;;;22.76;73.93;98008.16;5093473;28;20372;-68
2021/08/08 09:16:53;;;;;;;1999.90;999.90;;;;;;;22.55;75.51;98013.97;5092367;28;20055;-69
2021/08/08 09:19:32;;;;;;;1999.90;999.90;;;;;;;22.59;74.63;98014.72;5103225;28;20441;-69
2021/08/08 09:21:59;;;;;;;1999.90;999.90;;;;;;;22.50;74.18;98010.34;5092845;28;20097;-67
2021/08/08 09:24:25;;;;;;;1999.90;999.90;;;;;;;23.18;72.68;97999.72;5101425;28;20039;-68
2021/08/08 09:27:03;;;;;;;1999.90;999.90;;;;;;;22.75;71.10;98017.81;5098908;28;20127;-68
2021/08/08 09:29:30;;;;;;;1999.90;999.90;;;;;;;22.76;70.35;98025.06;5093374;28;20044;-67
2021/08/08 09:31:57;;;;;;;1999.90;999.90;;;;;;;22.65;70.39;98029.97;5093596;28;20052;-67
2021/08/08 09:34:24;;;;;;;1999.90;999.90;;;;;;;22.55;71.80;98022.41;5092825;28;20410;-67
2021/08/08 09:36:53;;;;;;;1999.90;999.90;;;;;;;22.72;71.06;98024.28;5092514;28;20058;-68
2021/08/08 09:39:41;;;;;;;1999.90;999.90;;;;;;;23.37;70.64;98024.50;5093050;28;20052;-67
2021/08/08 09:42:14;;;;;;;1999.90;999.90;;;;;;;24.18;68.03;98031.56;5092002;28;20048;-67
2021/08/08 09:44:53;;;;;;;1999.90;999.90;;;;;;;25.18;66.88;98027.56;5091766;28;20048;-67
2021/08/08 09:47:21;;;;;;;1999.90;999.90;;;;;;;25.54;64.32;98043.91;5092032;28;20098;-67
2021/08/08 09:49:59;;;;;;;1999.90;999.90;;;;;;;25.11;64.51;98040.63;5091673;28;20109;-68
2021/08/08 09:52:26;;;;;;;1999.90;999.90;;;;;;;24.53;66.45;98023.75;5091998;28;20052;-67
2021/08/08 09:54:53;;;;;;;1999.90;999.90;;;;;;;25.65;64.40;98022.63;5091770;28;20048;-67
2021/08/08 09:57:19;;;;;;;1999.90;999.90;;;;;;;25.50;63.84;98032.63;5092886;28;20071;-67
2021/08/08 09:59:50;;;;;;;1999.90;999.90;;;;;;;24.45;65.26;98030.78;5092320;28;20094;-66
2021/08/08 10:02:21;;;;;;;1999.90;999.90;;;;;;;25.01;62.23;98040.78;5096714;28;20092;-67
2021/08/08 10:04:49;;;;;;;1999.90;999.90;;;;;;;24.42;64.81;98034.44;5104014;28;20052;-66
2021/08/08 10:07:17;;;;;;;1999.90;999.90;;;;;;;25.10;62.52;98029.72;5093553;28;20105;-66
2021/08/08 10:09:49;;;;;;;1999.90;999.90;;;;;;;25.18;62.23;98021.91;5092602;28;20451;-66
2021/08/08 10:13:24;;;;;;;1999.90;999.90;;;;;;;25.38;62.75;98016.31;5092198;28;20400;-66
2021/08/08 10:15:52;;;;;;;1999.90;999.90;;;;;;;24.72;63.54;98013.03;5012445;28;20091;-66
2021/08/08 10:18:23;;;;;;;1999.90;999.90;;;;;;;24.66;63.40;98015.53;5025805;28;20049;-67
2021/08/08 10:20:50;;;;;;;1999.90;999.90;;;;;;;24.45;63.45;98011.00;5074879;28;20076;-66
2021/08/08 10:23:17;;;;;;;1999.90;999.90;;;;;;;25.21;62.15;98021.84;5094680;28;20048;-66
2021/08/08 10:25:47;;;;;;;1999.90;999.90;;;;;;;25.66;62.43;98012.91;5092369;28;20044;-66
2021/08/08 10:28:15;;;;;;;1999.90;999.90;;;;;;;25.34;63.08;98019.22;5093008;28;20044;-66
2021/08/08 10:30:43;;;;;;;1999.90;999.90;;;;;;;26.14;63.06;98022.03;5092209;28;20051;-66
2021/08/08 10:33:10;;;;;;;1999.90;999.90;;;;;;;26.77;58.49;98025.84;5091431;28;20044;-66
2021/08/08 10:35:41;;;;;;;1999.90;999.90;;;;;;;28.06;54.71;98027.25;5107086;28;20039;-67
2021/08/08 10:38:09;;;;;;;;;;;;;;;27.49;56.53;98029.66;5092191;28;20390;-66
2021/08/08 10:40:37;;;;;;;1999.90;999.90;;;;;;;26.96;57.37;98037.53;5092063;28;19924;-68
2021/08/08 10:43:05;;;;;;;1999.90;999.90;;;;;;;27.40;55.52;98041.66;5093714;28;20044;-67
2021/08/08 10:45:35;;;;;;;1999.90;999.90;;;;;;;25.62;59.42;98040.50;5095983;28;20044;-68
2021/08/08 10:48:08;;;;;;;1999.90;999.90;;;;;;;25.69;62.26;98042.38;5095807;28;20326;-67
2021/08/08 10:50:35;;;;;;;1999.90;999.90;;;;;;;26.42;59.09;98039.59;5095171;28;20044;-67
2021/08/08 10:53:02;;;;;;;1999.90;999.90;;;;;;;26.57;56.09;98040.06;5095375;28;20048;-67
2021/08/08 10:55:30;;;;;;;1999.90;999.90;;;;;;;25.47;59.76;98053.31;5096326;28;20048;-67
2021/08/08 10:58:00;;;;;;;1999.90;999.90;;;;;;;25.01;61.60;98040.78;5098335;28;20078;-67